createdAt,value
2023-05-16T00:02:05.897Z,16.70
2023-05-16T00:04:33.878Z,16.70
2023-05-16T00:07:01.432Z,16.72
2023-05-16T00:09:29.046Z,16.58
2023-05-16T00:11:57.024Z,16.62
2023-05-16T00:14:26.327Z,16.79
2023-05-16T00:16:54.514Z,16.87
2023-05-16T00:19:22.345Z,16.88
2023-05-16T00:21:49.795Z,16.80
2023-05-16T00:24:17.184Z,16.93
2023-05-16T00:26:44.817Z,16.84
2023-05-16T00:29:12.192Z,16.84
2023-05-16T00:31:39.582Z,16.77
2023-05-16T00:34:07.317Z,16.63
2023-05-16T00:36:35.874Z,16.61
2023-05-16T00:39:03.758Z,16.70
2023-05-16T00:41:31.760Z,16.91
2023-05-16T00:43:59.116Z,16.59
2023-05-16T00:46:26.501Z,16.53
2023-05-16T00:48:54.340Z,16.60
2023-05-16T00:51:21.720Z,16.70
2023-05-16T00:53:49.217Z,17.00
2023-05-16T00:56:17.866Z,16.77
2023-05-16T00:58:45.896Z,16.98
2023-05-16T01:01:14.376Z,16.59
2023-05-16T01:03:46.067Z,16.81
2023-05-16T01:06:13.624Z,16.93
2023-05-16T01:08:41.664Z,16.79
2023-05-16T01:11:19.966Z,16.77
2023-05-16T01:14:05.928Z,16.71
2023-05-16T01:16:37.798Z,16.75
2023-05-16T01:19:44.251Z,16.80
2023-05-16T01:22:17.150Z,16.44
2023-05-16T01:25:05.767Z,16.00
2023-05-16T01:27:34.557Z,16.24
2023-05-16T01:30:06.625Z,16.40
2023-05-16T01:32:34.422Z,16.41
2023-05-16T01:35:03.083Z,16.56
2023-05-16T01:37:41.783Z,16.42
2023-05-16T01:40:13.109Z,16.05
2023-05-16T01:42:44.360Z,16.05
2023-05-16T01:45:22.406Z,16.20
2023-05-16T01:48:19.830Z,16.14
2023-05-16T01:50:53.948Z,16.32
2023-05-16T01:53:26.930Z,16.33
2023-05-16T01:55:57.356Z,15.96
2023-05-16T01:58:26.604Z,15.96
2023-05-16T02:00:54.507Z,16.31
2023-05-16T02:03:22.306Z,16.22
2023-05-16T02:05:49.918Z,16.32
2023-05-16T02:08:17.529Z,16.24
2023-05-16T02:10:45.135Z,16.17
2023-05-16T02:13:12.515Z,16.35
2023-05-16T02:15:39.937Z,16.17
2023-05-16T02:18:07.781Z,16.14
2023-05-16T02:20:35.818Z,16.25
2023-05-16T02:23:06.140Z,16.05
2023-05-16T02:25:33.840Z,16.14
2023-05-16T02:28:01.243Z,16.23
2023-05-16T02:30:28.580Z,16.19
2023-05-16T02:32:56.385Z,16.16
2023-05-16T02:35:24.548Z,16.30
2023-05-16T02:37:52.284Z,16.29
2023-05-16T02:40:20.051Z,16.16
2023-05-16T02:42:47.621Z,16.09
2023-05-16T02:45:16.415Z,15.84
2023-05-16T02:47:44.768Z,16.02
2023-05-16T02:50:12.132Z,15.98
2023-05-16T02:52:39.596Z,16.10
2023-05-16T02:57:38.137Z,16.20
2023-05-16T03:00:06.396Z,16.10
2023-05-16T03:02:34.261Z,16.30
2023-05-16T03:05:01.712Z,16.13
2023-05-16T03:07:29.239Z,16.27
2023-05-16T03:09:57.272Z,16.31
2023-05-16T03:12:24.670Z,16.19
2023-05-16T03:14:52.394Z,16.10
2023-05-16T03:17:20.119Z,16.13
2023-05-16T03:19:47.632Z,16.21
2023-05-16T03:22:15.273Z,15.90
2023-05-16T03:24:43.740Z,15.98
2023-05-16T03:27:12.152Z,16.03
2023-05-16T03:29:39.598Z,15.95
2023-05-16T03:32:07.543Z,15.99
2023-05-16T03:34:35.269Z,16.21
2023-05-16T03:37:02.682Z,15.74
2023-05-16T03:39:30.301Z,15.69
2023-05-16T03:41:57.804Z,15.93
2023-05-16T03:44:25.266Z,15.76
2023-05-16T03:46:54.217Z,15.45
2023-05-16T03:49:26.765Z,15.86
2023-05-16T03:51:54.438Z,16.02
2023-05-16T03:54:22.343Z,16.18
2023-05-16T03:56:49.923Z,16.19
2023-05-16T03:59:17.640Z,16.23
2023-05-16T04:01:45.099Z,16.12
2023-05-16T04:04:12.797Z,15.96
2023-05-16T04:06:40.521Z,15.83
2023-05-16T04:09:07.875Z,15.81
2023-05-16T04:11:36.405Z,16.02
2023-05-16T04:14:03.847Z,16.05
2023-05-16T04:16:31.305Z,15.99
2023-05-16T04:18:59.449Z,16.11
2023-05-16T04:21:26.862Z,16.09
2023-05-16T04:23:54.276Z,16.14
2023-05-16T04:26:24.944Z,15.87
2023-05-16T04:28:52.858Z,15.95
2023-05-16T04:31:20.258Z,16.15
2023-05-16T04:33:47.945Z,16.32
2023-05-16T04:36:15.317Z,16.16
2023-05-16T04:38:42.933Z,16.03
2023-05-16T04:41:10.558Z,15.99
2023-05-16T04:43:38.098Z,15.89
2023-05-16T04:46:06.796Z,16.12
2023-05-16T04:48:34.463Z,16.01
2023-05-16T04:51:01.829Z,16.03
2023-05-16T04:53:29.215Z,15.98
2023-05-16T04:55:56.870Z,15.84
2023-05-16T04:58:24.381Z,16.13
2023-05-16T05:00:52.428Z,16.20
2023-05-16T05:03:20.193Z,16.33
2023-05-16T05:05:47.805Z,16.43
2023-05-16T05:08:15.409Z,16.38
2023-05-16T05:10:43.173Z,16.44
2023-05-16T05:13:11.537Z,16.43
2023-05-16T05:15:38.939Z,16.37
2023-05-16T05:18:06.739Z,16.35
2023-05-16T05:20:34.219Z,16.54
2023-05-16T05:23:01.662Z,16.31
2023-05-16T05:25:29.579Z,16.27
2023-05-16T05:27:57.116Z,16.42
2023-05-16T05:30:24.514Z,16.49
2023-05-16T05:32:53.364Z,16.62
2023-05-16T05:35:21.316Z,16.27
2023-05-16T05:37:48.850Z,16.31
2023-05-16T05:40:16.556Z,16.25
2023-05-16T05:42:46.764Z,15.85
2023-05-16T05:45:15.987Z,16.13
2023-05-16T05:47:43.964Z,16.07
2023-05-16T05:50:11.635Z,16.13
2023-05-16T05:52:39.040Z,16.25
2023-05-16T05:55:06.934Z,16.33
2023-05-16T05:57:34.306Z,16.44
2023-05-16T06:00:01.708Z,16.37
2023-05-16T06:02:35.266Z,16.40
2023-05-16T06:05:03.031Z,16.60
2023-05-16T06:07:31.350Z,16.62
2023-05-16T06:09:59.590Z,16.69
2023-05-16T06:12:27.257Z,16.76
2023-05-16T06:14:54.737Z,16.81
2023-05-16T06:17:22.235Z,16.80
2023-05-16T06:19:49.858Z,17.07
2023-05-16T06:22:17.260Z,16.92
2023-05-16T06:24:44.635Z,16.85
2023-05-16T06:27:12.311Z,16.59
2023-05-16T06:29:39.719Z,16.61
2023-05-16T06:32:07.363Z,16.65
2023-05-16T06:34:35.292Z,16.17
2023-05-16T06:37:03.812Z,16.30
2023-05-16T06:39:31.196Z,16.36
2023-05-16T06:41:58.881Z,16.64
2023-05-16T06:44:27.135Z,16.24
2023-05-16T06:46:54.755Z,16.37
2023-05-16T06:49:22.504Z,16.45
2023-05-16T06:51:49.931Z,16.25
2023-05-16T06:54:17.354Z,16.22
2023-05-16T06:56:45.611Z,16.08
2023-05-16T06:59:13.250Z,15.51
2023-05-16T07:01:41.827Z,15.71
2023-05-16T07:04:09.625Z,15.46
2023-05-16T07:06:37.114Z,15.40
2023-05-16T07:09:04.727Z,15.16
2023-05-16T07:11:32.399Z,15.14
2023-05-16T07:13:59.817Z,15.16
2023-05-16T07:16:28.599Z,15.16
2023-05-16T07:18:56.907Z,15.41
2023-05-16T07:21:24.592Z,15.15
2023-05-16T07:23:52.076Z,15.13
2023-05-16T07:26:22.329Z,14.82
2023-05-16T07:28:50.800Z,14.93
2023-05-16T07:31:18.655Z,14.93
2023-05-16T07:33:49.323Z,15.20
2023-05-16T07:36:17.680Z,15.40
2023-05-16T07:38:45.345Z,15.07
2023-05-16T07:41:13.157Z,15.53
2023-05-16T07:43:40.578Z,15.62
2023-05-16T07:46:08.601Z,15.33
2023-05-16T07:48:36.338Z,15.46
2023-05-16T07:51:03.815Z,15.40
2023-05-16T07:53:31.216Z,15.19
2023-05-16T07:55:58.915Z,15.23
2023-05-16T07:58:26.416Z,15.19
2023-05-16T08:00:54.208Z,15.32
2023-05-16T08:03:22.243Z,15.12
2023-05-16T08:05:51.869Z,15.21
2023-05-16T08:08:19.420Z,15.26
2023-05-16T08:10:47.328Z,15.23
2023-05-16T08:13:14.839Z,15.35
2023-05-16T08:15:42.917Z,15.18
2023-05-16T08:18:15.151Z,15.00
2023-05-16T08:20:42.973Z,14.68
2023-05-16T08:23:10.706Z,14.79
2023-05-16T08:25:38.208Z,15.03
2023-05-16T08:28:05.681Z,15.24
2023-05-16T08:30:33.423Z,15.11
2023-05-16T08:33:04.840Z,15.29
2023-05-16T08:35:33.289Z,15.47
2023-05-16T08:38:00.792Z,15.46
2023-05-16T08:40:28.551Z,15.47
2023-05-16T08:42:56.360Z,15.67
2023-05-16T08:45:24.187Z,15.66
2023-05-16T08:47:55.137Z,15.12
2023-05-16T08:50:23.164Z,15.17
2023-05-16T08:52:52.609Z,14.94
2023-05-16T08:55:22.299Z,15.07
2023-05-16T08:57:51.597Z,15.22
2023-05-16T09:00:19.743Z,15.27
2023-05-16T09:02:47.386Z,15.28
2023-05-16T09:05:17.251Z,15.44
2023-05-16T09:07:45.629Z,15.28
2023-05-16T09:10:13.841Z,15.50
2023-05-16T09:12:42.358Z,15.26
2023-05-16T09:15:11.025Z,15.58
2023-05-16T09:17:43.000Z,15.58
2023-05-16T09:20:11.930Z,15.80
2023-05-16T09:22:39.628Z,15.64
2023-05-16T09:25:12.723Z,15.79
2023-05-16T09:27:53.258Z,16.05
2023-05-16T09:30:28.553Z,15.79
2023-05-16T09:32:56.385Z,15.91
2023-05-16T09:35:39.612Z,15.72
2023-05-16T09:38:16.690Z,15.47
2023-05-16T09:40:45.392Z,15.75
2023-05-16T09:43:17.097Z,15.78
2023-05-16T09:45:49.057Z,15.88
2023-05-16T09:48:18.093Z,15.94
2023-05-16T09:50:54.049Z,16.18
2023-05-16T09:53:28.724Z,15.89
2023-05-16T09:56:03.913Z,15.55
2023-05-16T09:58:33.846Z,15.56
2023-05-16T10:01:02.355Z,15.16
2023-05-16T10:03:30.374Z,15.30
2023-05-16T10:05:58.036Z,15.40
2023-05-16T10:08:26.753Z,15.44
2023-05-16T10:10:56.358Z,15.62
2023-05-16T10:13:27.274Z,15.70
2023-05-16T10:15:56.711Z,15.31
2023-05-16T10:18:31.587Z,15.29
2023-05-16T10:21:05.533Z,15.49
2023-05-16T10:23:34.025Z,15.44
2023-05-16T10:26:04.565Z,15.47
2023-05-16T10:28:32.680Z,15.55
2023-05-16T10:31:01.819Z,15.73
2023-05-16T10:33:29.836Z,15.24
2023-05-16T10:35:57.292Z,15.45
2023-05-16T10:38:25.404Z,15.30
2023-05-16T10:40:53.278Z,14.97
2023-05-16T10:43:25.243Z,15.22
2023-05-16T10:46:09.722Z,15.32
2023-05-16T10:48:39.715Z,15.00
2023-05-16T10:51:22.909Z,14.95
2023-05-16T10:53:54.705Z,15.31
2023-05-16T10:56:24.021Z,15.62
2023-05-16T10:58:53.534Z,15.93
2023-05-16T11:01:25.743Z,15.89
2023-05-16T11:03:59.563Z,15.70
2023-05-16T11:06:29.208Z,15.60
2023-05-16T11:09:13.388Z,15.57
2023-05-16T11:11:49.163Z,15.43
2023-05-16T11:14:32.885Z,15.18
2023-05-16T11:17:07.737Z,15.58
2023-05-16T11:19:36.544Z,15.66
2023-05-16T11:22:07.670Z,15.74
2023-05-16T11:24:36.693Z,15.77
2023-05-16T11:27:04.865Z,15.74
2023-05-16T11:29:36.257Z,15.63
2023-05-16T11:32:05.273Z,15.78
2023-05-16T11:34:37.723Z,16.13
2023-05-16T11:37:05.693Z,16.16
2023-05-16T11:39:33.274Z,15.84
2023-05-16T11:42:01.213Z,15.83
2023-05-16T11:44:28.964Z,15.69
2023-05-16T11:46:56.717Z,15.61
2023-05-16T11:49:24.308Z,15.65
2023-05-16T11:51:54.502Z,15.64
2023-05-16T11:54:22.422Z,16.03
2023-05-16T11:56:50.695Z,15.99
2023-05-16T11:59:18.837Z,16.19
2023-05-16T12:01:49.212Z,16.33
2023-05-16T12:04:17.714Z,16.77
2023-05-16T12:06:45.646Z,16.75
2023-05-16T12:09:18.358Z,16.65
2023-05-16T12:27:08.817Z,16.19
2023-05-16T12:29:36.601Z,16.49
2023-05-16T12:32:04.911Z,16.53
2023-05-16T12:34:32.346Z,16.59
2023-05-16T12:37:01.518Z,16.57
2023-05-16T12:39:37.282Z,16.60
2023-05-16T12:42:06.576Z,16.66
2023-05-16T12:44:34.028Z,16.99
2023-05-16T12:47:02.443Z,16.64
2023-05-16T12:49:30.245Z,16.54
2023-05-16T12:52:05.683Z,16.22
2023-05-16T12:54:35.926Z,16.21
2023-05-16T12:57:04.486Z,16.31
2023-05-16T12:59:31.859Z,16.49
2023-05-16T13:01:59.542Z,16.22
2023-05-16T13:04:26.996Z,16.56
2023-05-16T13:06:59.296Z,16.68
2023-05-16T13:09:32.098Z,16.69
2023-05-16T13:12:00.919Z,16.69
2023-05-16T13:14:28.738Z,16.65
2023-05-16T13:16:56.337Z,16.60
2023-05-16T13:19:24.521Z,16.51
2023-05-16T13:21:52.659Z,16.52
2023-05-16T13:24:20.144Z,16.69
2023-05-16T13:26:47.564Z,16.59
2023-05-16T13:29:15.309Z,16.56
2023-05-16T13:31:42.825Z,16.48
2023-05-16T13:34:10.375Z,16.62
2023-05-16T13:36:52.266Z,16.59
2023-05-16T13:39:21.872Z,16.93
2023-05-16T13:41:49.772Z,17.07
2023-05-16T13:44:18.122Z,17.11
2023-05-16T13:46:45.999Z,16.80
2023-05-16T13:49:13.737Z,16.67
2023-05-16T13:51:41.486Z,16.59
2023-05-16T13:54:09.089Z,16.81
2023-05-16T13:56:36.825Z,16.76
2023-05-16T13:59:07.138Z,17.10
2023-05-16T14:01:34.882Z,16.92
2023-05-16T14:04:03.338Z,17.30
2023-05-16T14:06:31.497Z,17.80
2023-05-16T14:08:58.956Z,17.88
2023-05-16T14:11:29.178Z,17.75
2023-05-16T14:13:58.075Z,17.73
2023-05-16T14:16:25.997Z,17.85
2023-05-16T14:18:53.855Z,17.57
2023-05-16T14:21:21.292Z,17.75
2023-05-16T14:23:51.741Z,17.58
2023-05-16T14:26:25.159Z,17.72
2023-05-16T14:28:52.599Z,17.82
2023-05-16T14:31:20.664Z,17.75
2023-05-16T14:33:49.464Z,17.60
2023-05-16T14:36:18.024Z,17.77
2023-05-16T14:38:45.814Z,17.48
2023-05-16T14:41:13.267Z,17.52
2023-05-16T14:43:40.823Z,17.37
2023-05-16T14:46:09.075Z,17.81
2023-05-16T14:48:36.620Z,17.78
2023-05-16T14:51:05.091Z,17.33
2023-05-16T14:53:32.894Z,17.17
2023-05-16T14:56:02.856Z,17.43
2023-05-16T14:58:30.759Z,17.46
2023-05-16T15:00:58.643Z,17.30
2023-05-16T15:03:26.199Z,17.67
2023-05-16T15:05:54.677Z,18.04
2023-05-16T15:08:24.014Z,17.69
2023-05-16T15:10:51.805Z,17.65
2023-05-16T15:13:19.559Z,17.59
2023-05-16T15:15:49.585Z,17.48
2023-05-16T15:18:17.705Z,17.27
2023-05-16T15:20:45.452Z,17.27
2023-05-16T15:23:15.682Z,17.24
2023-05-16T15:25:43.332Z,17.23
2023-05-16T15:28:10.934Z,17.27
2023-05-16T15:30:38.822Z,17.04
2023-05-16T15:33:06.480Z,17.03
2023-05-16T15:35:34.003Z,17.07
2023-05-16T15:38:02.134Z,16.94
2023-05-16T15:40:29.954Z,16.97
2023-05-16T15:42:57.424Z,16.93
2023-05-16T15:45:25.653Z,16.84
2023-05-16T15:47:53.869Z,16.95
2023-05-16T15:50:22.275Z,16.67
2023-05-16T15:52:58.405Z,16.81
2023-05-16T15:55:25.991Z,17.09
2023-05-16T15:57:59.630Z,16.78
2023-05-16T16:00:27.377Z,17.02
2023-05-16T16:02:55.774Z,16.73
2023-05-16T16:05:23.765Z,16.88
2023-05-16T16:07:55.124Z,17.04
2023-05-16T16:10:23.169Z,16.87
2023-05-16T16:13:03.956Z,16.93
2023-05-16T16:15:33.542Z,16.95
2023-05-16T16:18:02.005Z,17.00
2023-05-16T16:20:29.788Z,17.24
2023-05-16T16:22:57.675Z,17.25
2023-05-16T16:25:25.877Z,16.84
2023-05-16T16:27:53.539Z,16.72
2023-05-16T16:30:22.821Z,16.97
2023-05-16T16:32:50.482Z,16.65
2023-05-16T16:35:18.129Z,16.83
2023-05-16T16:37:54.821Z,16.73
2023-05-16T16:40:32.983Z,16.62
2023-05-16T16:43:01.472Z,16.77
2023-05-16T16:45:29.477Z,16.62
2023-05-16T16:47:57.976Z,16.78
2023-05-16T16:50:26.373Z,16.96
2023-05-16T16:52:54.905Z,17.01
2023-05-16T16:55:22.483Z,16.90
2023-05-16T16:57:50.640Z,16.91
2023-05-16T17:00:18.772Z,16.69
2023-05-16T17:02:46.633Z,16.47
2023-05-16T17:05:14.997Z,16.38
2023-05-16T17:07:43.179Z,16.43
2023-05-16T17:10:10.723Z,16.53
2023-05-16T17:12:46.820Z,16.58
2023-05-16T17:15:14.406Z,16.39
2023-05-16T17:17:42.987Z,16.58
2023-05-16T17:20:12.887Z,16.47
2023-05-16T17:22:41.047Z,16.65
2023-05-16T17:25:10.083Z,16.87
2023-05-16T17:27:38.622Z,16.99
2023-05-16T17:30:07.646Z,17.26
2023-05-16T17:32:35.764Z,17.00
2023-05-16T17:35:04.303Z,17.20
2023-05-16T17:37:33.426Z,17.09
2023-05-16T17:40:01.521Z,16.63
2023-05-16T17:42:29.175Z,16.53
2023-05-16T17:44:57.058Z,16.58
2023-05-16T17:47:25.713Z,16.60
2023-05-16T17:49:53.252Z,16.90
2023-05-16T17:52:22.452Z,16.69
2023-05-16T17:54:50.207Z,17.17
2023-05-16T17:57:17.613Z,16.86
2023-05-16T17:59:45.159Z,16.82
2023-05-16T18:02:15.520Z,16.74
2023-05-16T18:04:46.895Z,16.60
2023-05-16T18:07:14.522Z,16.62
2023-05-16T18:09:42.292Z,16.59
2023-05-16T18:12:10.324Z,16.92
2023-05-16T18:14:43.082Z,16.93
2023-05-16T18:17:13.435Z,16.96
2023-05-16T18:19:41.630Z,17.01
2023-05-16T18:22:11.969Z,16.98
2023-05-16T18:24:40.205Z,16.72
2023-05-16T18:27:08.392Z,16.74
2023-05-16T18:29:36.524Z,16.93
2023-05-16T18:32:04.829Z,17.14
2023-05-16T18:34:32.786Z,17.01
2023-05-16T18:37:00.263Z,16.88
2023-05-16T18:39:28.011Z,16.95
2023-05-16T18:41:55.820Z,16.69
2023-05-16T18:44:24.091Z,16.84
2023-05-16T18:46:52.177Z,16.98
2023-05-16T18:49:20.527Z,16.79
2023-05-16T18:51:48.821Z,16.98
2023-05-16T18:54:16.875Z,16.95
2023-05-16T18:56:45.069Z,16.86
2023-05-16T18:59:13.409Z,17.09
2023-05-16T19:01:41.701Z,17.15
2023-05-16T19:04:10.932Z,17.31
2023-05-16T19:06:39.247Z,17.02
2023-05-16T19:09:08.556Z,16.89
2023-05-16T19:11:38.465Z,17.05
2023-05-16T19:14:06.861Z,16.62
2023-05-16T19:16:35.598Z,16.76
2023-05-16T19:19:04.719Z,16.83
2023-05-16T19:21:35.616Z,16.57
2023-05-16T19:24:03.788Z,16.05
2023-05-16T19:26:31.403Z,16.17
2023-05-16T19:29:00.498Z,16.12
2023-05-16T19:31:28.986Z,16.15
2023-05-16T19:33:59.346Z,16.40
2023-05-16T19:36:27.297Z,16.01
2023-05-16T19:38:55.351Z,16.41
2023-05-16T19:41:24.759Z,16.43
2023-05-16T19:43:52.527Z,16.32
2023-05-16T19:46:20.773Z,16.09
2023-05-16T19:48:49.169Z,15.94
2023-05-16T19:51:23.782Z,16.16
2023-05-16T19:53:57.868Z,16.38
2023-05-16T19:56:25.389Z,16.09
2023-05-16T19:58:52.959Z,16.23
2023-05-16T20:01:21.039Z,16.36
2023-05-16T20:03:49.187Z,16.43
2023-05-16T20:06:16.892Z,16.26
2023-05-16T20:08:44.375Z,15.91
2023-05-16T20:11:13.124Z,16.44
2023-05-16T20:13:40.633Z,16.36
2023-05-16T20:16:08.288Z,16.66
2023-05-16T20:18:36.376Z,16.31
2023-05-16T20:21:04.052Z,16.41
2023-05-16T20:23:31.665Z,16.57
2023-05-16T20:25:59.450Z,16.41
2023-05-16T20:28:26.954Z,16.80
2023-05-16T20:30:54.444Z,16.53
2023-05-16T20:33:22.382Z,16.40
2023-05-16T20:35:49.847Z,16.30
2023-05-16T20:38:17.276Z,16.57
2023-05-16T20:40:44.990Z,16.24
2023-05-16T20:43:12.491Z,16.11
2023-05-16T20:45:39.995Z,16.16
2023-05-16T20:48:08.431Z,16.53
2023-05-16T20:50:39.004Z,16.59
2023-05-16T20:53:06.412Z,16.55
2023-05-16T20:55:34.072Z,16.45
2023-05-16T20:58:01.532Z,16.39
2023-05-16T21:00:29.058Z,16.90
2023-05-16T21:02:56.846Z,17.05
2023-05-16T21:05:25.863Z,17.11
2023-05-16T21:07:53.806Z,16.82
2023-05-16T21:10:21.560Z,16.76
2023-05-16T21:12:50.221Z,16.64
2023-05-16T21:15:17.715Z,16.65
2023-05-16T21:17:45.697Z,16.52
2023-05-16T21:20:13.181Z,16.59
2023-05-16T21:22:41.076Z,16.66
2023-05-16T21:25:09.014Z,16.56
2023-05-16T21:27:36.459Z,16.72
2023-05-16T21:30:04.300Z,16.50
2023-05-16T21:32:32.989Z,16.37
2023-05-16T21:35:04.808Z,16.46
2023-05-16T21:37:33.076Z,16.37
2023-05-16T21:40:00.746Z,16.63
2023-05-16T21:42:28.422Z,16.40
2023-05-16T21:44:56.261Z,16.19
2023-05-16T21:47:24.300Z,16.56
2023-05-16T21:49:51.730Z,16.71
2023-05-16T21:52:19.642Z,16.38
2023-05-16T21:54:51.697Z,16.61
2023-05-16T21:57:19.811Z,16.32
2023-05-16T21:59:50.498Z,16.64
2023-05-16T22:02:22.731Z,16.54
2023-05-16T22:04:52.246Z,16.42
2023-05-16T22:07:19.972Z,16.31
2023-05-16T22:09:50.891Z,16.39
2023-05-16T22:12:18.739Z,16.78
2023-05-16T22:14:46.197Z,16.99
2023-05-16T22:17:13.673Z,16.88
2023-05-16T22:19:42.417Z,16.85
2023-05-16T22:22:10.740Z,17.13
2023-05-16T22:24:38.934Z,17.31
2023-05-16T22:27:06.705Z,17.00
2023-05-16T22:29:38.165Z,16.73
2023-05-16T22:32:09.473Z,17.00
2023-05-16T22:34:40.558Z,16.96
2023-05-16T22:37:09.430Z,16.77
2023-05-16T22:39:37.282Z,16.89
2023-05-16T22:42:05.095Z,17.01
2023-05-16T22:44:32.557Z,17.13
2023-05-16T22:47:00.555Z,16.76
2023-05-16T22:49:28.157Z,17.12
2023-05-16T22:51:55.601Z,16.98
2023-05-16T22:54:23.379Z,17.12
2023-05-16T22:56:51.890Z,17.32
2023-05-16T22:59:19.325Z,16.91
2023-05-16T23:01:47.021Z,16.70
2023-05-16T23:04:14.553Z,16.82
2023-05-16T23:06:42.001Z,16.74
2023-05-16T23:09:09.648Z,16.85
2023-05-16T23:11:37.318Z,17.18
2023-05-16T23:14:04.736Z,17.22
2023-05-16T23:16:32.405Z,17.23
2023-05-16T23:18:59.855Z,17.28
2023-05-16T23:21:27.396Z,17.66
2023-05-16T23:23:55.088Z,17.48
2023-05-16T23:26:22.550Z,17.58
2023-05-16T23:28:50.152Z,17.71
2023-05-16T23:31:17.826Z,17.78
2023-05-16T23:33:45.266Z,17.82
2023-05-16T23:36:12.704Z,17.90
2023-05-16T23:38:40.378Z,18.00
2023-05-16T23:41:07.906Z,18.05
2023-05-16T23:43:35.392Z,17.94
2023-05-16T23:46:03.093Z,17.91
2023-05-16T23:48:30.630Z,17.90
2023-05-16T23:50:58.685Z,17.90
2023-05-16T23:53:29.079Z,17.80
2023-05-16T23:55:56.497Z,18.03
2023-05-16T23:58:24.007Z,18.09
